createdAt,value
2018-03-01T00:00:16.826Z,15.80
2018-03-01T00:01:16.654Z,16.40
2018-03-01T00:02:16.630Z,16.70
2018-03-01T00:03:16.468Z,16.70
2018-03-01T00:04:16.472Z,15.50
2018-03-01T00:05:16.294Z,16.80
2018-03-01T00:06:16.280Z,14.90
2018-03-01T00:07:16.125Z,16.10
2018-03-01T00:08:16.050Z,16.20
2018-03-01T00:09:15.932Z,16.80
2018-03-01T00:10:16.001Z,17.20
2018-03-01T00:11:15.767Z,16.10
2018-03-01T00:12:15.780Z,15.90
2018-03-01T00:13:15.602Z,13.80
2018-03-01T00:14:15.593Z,17.00
2018-03-01T00:15:15.433Z,15.60
2018-03-01T00:16:15.407Z,16.70
2018-03-01T00:17:15.239Z,16.40
2018-03-01T00:18:15.208Z,16.40
2018-03-01T00:19:15.068Z,16.20
2018-03-01T00:20:15.067Z,17.00
2018-03-01T00:21:14.901Z,16.70
2018-03-01T00:22:14.822Z,16.20
2018-03-01T00:23:14.728Z,16.30
2018-03-01T00:24:14.727Z,16.40
2018-03-01T00:25:14.558Z,16.00
2018-03-01T00:26:14.576Z,16.40
2018-03-01T00:27:14.384Z,16.10
2018-03-01T00:28:14.348Z,16.30
2018-03-01T00:29:14.183Z,15.80
2018-03-01T00:30:14.149Z,16.30
2018-03-01T00:31:14.032Z,13.30
2018-03-01T00:32:13.973Z,15.00
2018-03-01T00:33:13.836Z,16.40
2018-03-01T00:34:13.882Z,16.30
2018-03-01T00:35:13.664Z,14.90
2018-03-01T00:36:13.718Z,16.20
2018-03-01T00:37:13.488Z,16.80
2018-03-01T00:38:13.519Z,16.40
2018-03-01T00:39:13.324Z,16.80
2018-03-01T00:40:13.321Z,15.80
2018-03-01T00:41:13.157Z,16.50
2018-03-01T00:42:13.141Z,16.00
2018-03-01T00:43:12.976Z,15.10
2018-03-01T00:44:12.945Z,15.80
2018-03-01T00:45:12.792Z,15.50
2018-03-01T00:46:12.830Z,16.50
2018-03-01T00:47:12.615Z,15.20
2018-03-01T00:48:12.665Z,16.00
2018-03-01T00:49:12.435Z,17.20
2018-03-01T00:50:12.453Z,15.80
2018-03-01T00:51:12.267Z,12.50
2018-03-01T00:52:12.278Z,15.60
2018-03-01T00:53:12.101Z,15.70
2018-03-01T00:54:12.067Z,16.10
2018-03-01T00:55:11.911Z,15.90
2018-03-01T00:56:11.873Z,16.30
2018-03-01T00:57:11.842Z,16.40
2018-03-01T00:58:11.784Z,15.50
2018-03-01T00:59:11.565Z,13.10
2018-03-01T01:00:12.467Z,15.50
2018-03-01T01:01:11.394Z,16.10
2018-03-01T01:02:11.393Z,16.40
2018-03-01T01:03:11.230Z,15.60
2018-03-01T01:04:11.207Z,15.70
2018-03-01T01:05:11.085Z,16.10
2018-03-01T01:06:11.017Z,15.20
2018-03-01T01:07:10.863Z,15.50
2018-03-01T01:08:10.851Z,14.50
2018-03-01T01:09:10.691Z,14.00
2018-03-01T01:10:10.635Z,16.10
2018-03-01T01:11:10.515Z,15.20
2018-03-01T01:12:10.588Z,15.10
2018-03-01T01:13:10.356Z,15.20
2018-03-01T01:14:10.349Z,14.80
2018-03-01T01:15:10.166Z,15.90
2018-03-01T01:16:10.164Z,15.50
2018-03-01T01:17:09.986Z,15.40
2018-03-01T01:18:10.001Z,16.10
2018-03-01T01:19:09.814Z,15.60
2018-03-01T01:20:09.773Z,15.40
2018-03-01T01:21:09.657Z,15.50
2018-03-01T01:22:09.686Z,15.40
2018-03-01T01:23:09.496Z,15.70
2018-03-01T01:24:09.495Z,15.30
2018-03-01T01:25:09.285Z,16.40
2018-03-01T01:26:09.302Z,16.10
2018-03-01T01:27:09.976Z,15.20
2018-03-01T01:28:09.138Z,16.40
2018-03-01T01:29:08.962Z,15.30
2018-03-01T01:30:08.950Z,16.00
2018-03-01T01:31:08.766Z,14.80
2018-03-01T01:32:08.725Z,15.30
2018-03-01T01:33:08.595Z,14.70
2018-03-01T01:34:08.520Z,15.20
2018-03-01T01:35:08.421Z,15.90
2018-03-01T01:36:08.445Z,15.90
2018-03-01T01:37:08.241Z,13.80
2018-03-01T01:38:08.246Z,15.50
2018-03-01T01:39:08.082Z,16.10
2018-03-01T01:40:08.065Z,15.10
2018-03-01T01:41:07.940Z,15.70
2018-03-01T01:42:07.870Z,15.30
2018-03-01T01:43:07.722Z,15.60
2018-03-01T01:44:07.812Z,14.80
2018-03-01T01:45:07.544Z,16.10
2018-03-01T01:46:07.590Z,15.10
2018-03-01T01:47:07.363Z,16.00
2018-03-01T01:48:07.299Z,15.20
2018-03-01T01:49:07.201Z,15.60
2018-03-01T01:50:07.240Z,15.90
2018-03-01T01:51:07.015Z,15.10
2018-03-01T01:52:07.015Z,15.60
2018-03-01T01:53:06.858Z,15.10
2018-03-01T01:54:06.825Z,15.60
2018-03-01T01:55:06.696Z,15.90
2018-03-01T01:56:06.635Z,15.60
2018-03-01T01:57:06.508Z,15.60
2018-03-01T01:58:06.447Z,16.00
2018-03-01T01:59:06.327Z,14.80
2018-03-01T02:00:06.415Z,15.00
2018-03-01T02:01:06.141Z,15.70
2018-03-01T02:02:06.155Z,14.80
2018-03-01T02:03:05.968Z,15.40
2018-03-01T02:04:05.976Z,15.70
2018-03-01T02:05:05.813Z,15.00
2018-03-01T02:06:05.772Z,16.10
2018-03-01T02:07:05.620Z,14.80
2018-03-01T02:08:05.591Z,14.50
2018-03-01T02:09:05.451Z,14.90
2018-03-01T02:10:05.421Z,15.60
2018-03-01T02:11:05.277Z,15.10
2018-03-01T02:12:05.320Z,15.60
2018-03-01T02:13:05.108Z,15.00
2018-03-01T02:14:05.118Z,15.50
2018-03-01T02:15:04.917Z,15.20
2018-03-01T02:16:05.008Z,15.00
2018-03-01T02:17:04.793Z,15.30
2018-03-01T02:18:04.729Z,14.70
2018-03-01T02:19:04.574Z,15.20
2018-03-01T02:20:04.541Z,15.10
2018-03-01T02:21:04.412Z,15.20
2018-03-01T02:22:04.345Z,14.60
2018-03-01T02:23:04.220Z,14.80
2018-03-01T02:24:04.262Z,15.40
2018-03-01T02:25:04.048Z,14.80
2018-03-01T02:26:04.098Z,15.20
2018-03-01T02:27:03.885Z,15.00
2018-03-01T02:28:03.870Z,15.60
2018-03-01T02:29:03.699Z,16.20
2018-03-01T02:30:03.679Z,15.60
2018-03-01T02:31:03.569Z,15.60
2018-03-01T02:32:03.534Z,15.10
2018-03-01T02:33:03.358Z,15.70
2018-03-01T02:34:03.352Z,14.50
2018-03-01T02:35:03.165Z,15.00
2018-03-01T02:36:03.207Z,15.00
2018-03-01T02:37:03.022Z,15.20
2018-03-01T02:38:03.017Z,15.50
2018-03-01T02:39:02.821Z,14.60
2018-03-01T02:40:02.825Z,15.90
2018-03-01T02:41:02.636Z,14.60
2018-03-01T02:42:02.672Z,15.40
2018-03-01T02:43:02.490Z,14.50
2018-03-01T02:44:02.439Z,13.30
2018-03-01T02:45:02.297Z,14.90
2018-03-01T02:46:02.260Z,14.30
2018-03-01T02:47:02.123Z,14.70
2018-03-01T02:48:02.091Z,14.90
2018-03-01T02:49:01.961Z,15.10
2018-03-01T02:50:01.981Z,14.50
2018-03-01T02:51:01.767Z,14.10
2018-03-01T02:52:01.776Z,15.10
2018-03-01T02:53:01.620Z,15.20
2018-03-01T02:54:01.585Z,14.40
2018-03-01T02:55:01.424Z,14.70
2018-03-01T02:56:01.399Z,14.40
2018-03-01T02:57:01.251Z,15.00
2018-03-01T02:58:01.245Z,14.00
2018-03-01T02:59:01.076Z,14.60
2018-03-01T03:00:01.011Z,14.10
2018-03-01T03:01:00.959Z,13.80
2018-03-01T03:02:00.921Z,14.70
2018-03-01T03:03:00.735Z,14.80
2018-03-01T03:04:00.883Z,15.10
2018-03-01T03:05:00.549Z,14.80
2018-03-01T03:06:00.545Z,15.40
2018-03-01T03:07:00.360Z,15.40
2018-03-01T03:08:00.354Z,14.50
2018-03-01T03:09:00.208Z,14.60
2018-03-01T03:10:00.165Z,13.00
2018-03-01T03:11:00.015Z,15.30
2018-03-01T03:11:59.964Z,14.20
2018-03-01T03:12:59.844Z,13.80
2018-03-01T03:13:59.870Z,14.50
2018-03-01T03:14:59.691Z,15.50
2018-03-01T03:15:59.682Z,14.10
2018-03-01T03:16:59.485Z,14.90
2018-03-01T03:17:59.494Z,14.30
2018-03-01T03:18:59.363Z,15.00
2018-03-01T03:19:59.297Z,14.10
2018-03-01T03:20:59.143Z,15.30
2018-03-01T03:21:59.104Z,14.60
2018-03-01T03:22:58.969Z,14.00
2018-03-01T03:23:58.953Z,15.30
2018-03-01T03:24:58.787Z,14.70
2018-03-01T03:25:58.838Z,15.10
2018-03-01T03:26:58.616Z,14.80
2018-03-01T03:27:58.629Z,15.50
2018-03-01T03:28:58.456Z,15.10
2018-03-01T03:29:58.438Z,14.60
2018-03-01T03:30:58.258Z,15.00
2018-03-01T03:31:58.251Z,15.20
2018-03-01T03:32:58.096Z,15.60
2018-03-01T03:33:58.061Z,14.80
2018-03-01T03:34:57.942Z,15.20
2018-03-01T03:35:57.870Z,14.50
2018-03-01T03:36:57.740Z,14.90
2018-03-01T03:37:57.791Z,14.90
2018-03-01T03:38:57.565Z,15.20
2018-03-01T03:39:57.634Z,14.70
2018-03-01T03:40:57.391Z,15.50
2018-03-01T03:41:57.397Z,10.70
2018-03-01T03:42:57.225Z,15.40
2018-03-01T03:43:57.211Z,15.20
2018-03-01T03:44:57.172Z,15.70
2018-03-01T03:45:57.054Z,13.10
2018-03-01T03:46:56.879Z,15.70
2018-03-01T03:47:56.927Z,15.40
2018-03-01T03:48:56.693Z,14.90
2018-03-01T03:49:56.759Z,14.60
2018-03-01T03:50:56.516Z,15.00
2018-03-01T03:51:56.547Z,15.10
2018-03-01T03:52:56.342Z,14.40
2018-03-01T03:53:56.355Z,15.80
2018-03-01T03:54:56.175Z,16.40
2018-03-01T03:55:56.200Z,14.20
2018-03-01T03:56:55.983Z,15.40
2018-03-01T03:57:55.968Z,13.60
2018-03-01T03:58:55.813Z,14.50
2018-03-01T03:59:55.784Z,14.90
2018-03-01T04:00:55.662Z,14.90
2018-03-01T04:01:55.691Z,14.60
2018-03-01T04:02:55.461Z,15.70
2018-03-01T04:03:55.799Z,15.20
2018-03-01T04:04:55.349Z,13.80
2018-03-01T04:05:55.363Z,14.90
2018-03-01T04:06:55.110Z,15.30
2018-03-01T04:07:55.108Z,13.80
2018-03-01T04:08:54.939Z,13.40
2018-03-01T04:09:54.924Z,14.90
2018-03-01T04:10:54.781Z,14.60
2018-03-01T04:11:54.729Z,14.40
2018-03-01T04:12:54.585Z,15.50
2018-03-01T04:13:54.543Z,15.70
2018-03-01T04:14:54.457Z,15.20
2018-03-01T04:15:54.387Z,15.50
2018-03-01T04:16:54.249Z,16.00
2018-03-01T04:17:54.265Z,15.60
2018-03-01T04:18:54.054Z,14.90
2018-03-01T04:19:54.063Z,14.80
2018-03-01T04:20:53.911Z,15.10
2018-03-01T04:21:53.881Z,15.60
2018-03-01T04:22:53.711Z,14.90
2018-03-01T04:23:53.675Z,15.20
2018-03-01T04:24:53.535Z,15.90
2018-03-01T04:25:53.525Z,15.40
2018-03-01T04:26:53.378Z,15.10
2018-03-01T04:27:53.394Z,14.60
2018-03-01T04:28:53.183Z,14.90
2018-03-01T04:29:53.209Z,15.30
2018-03-01T04:30:53.002Z,16.10
2018-03-01T04:31:53.087Z,15.90
2018-03-01T04:32:52.835Z,14.70
2018-03-01T04:33:52.831Z,15.50
2018-03-01T04:34:52.653Z,16.10
2018-03-01T04:35:52.632Z,16.30
2018-03-01T04:36:52.490Z,15.40
2018-03-01T04:37:52.481Z,15.10
2018-03-01T04:38:52.311Z,15.70
2018-03-01T04:39:52.247Z,15.80
2018-03-01T04:40:52.140Z,15.40
2018-03-01T04:41:52.161Z,15.10
2018-03-01T04:42:51.974Z,15.00
2018-03-01T04:43:51.967Z,15.20
2018-03-01T04:44:51.781Z,14.80
2018-03-01T04:45:51.788Z,15.80
2018-03-01T04:46:51.598Z,15.40
2018-03-01T04:47:51.622Z,15.20
2018-03-01T04:48:51.553Z,15.40
2018-03-01T04:49:51.391Z,12.30
2018-03-01T04:50:51.258Z,14.70
2018-03-01T04:51:51.197Z,15.70
2018-03-01T04:52:51.093Z,14.80
2018-03-01T04:53:51.114Z,15.30
2018-03-01T04:54:50.899Z,15.00
2018-03-01T04:55:50.918Z,14.90
2018-03-01T04:56:50.726Z,16.00
2018-03-01T04:57:50.756Z,15.50
2018-03-01T04:58:50.650Z,15.80
2018-03-01T04:59:50.533Z,14.60
2018-03-01T05:00:50.382Z,14.90
2018-03-01T05:01:50.349Z,15.30
2018-03-01T05:02:50.210Z,15.00
2018-03-01T05:03:50.154Z,15.30
2018-03-01T05:04:50.022Z,15.70
2018-03-01T05:05:50.067Z,16.00
2018-03-01T05:06:49.854Z,14.70
2018-03-01T05:07:49.906Z,15.30
2018-03-01T05:08:49.707Z,14.70
2018-03-01T05:09:49.707Z,14.10
2018-03-01T05:10:49.495Z,14.50
2018-03-01T05:11:49.497Z,15.00
2018-03-01T05:12:49.344Z,15.20
2018-03-01T05:13:49.343Z,14.70
2018-03-01T05:14:49.145Z,14.90
2018-03-01T05:15:49.117Z,15.20
2018-03-01T05:16:48.971Z,15.10
2018-03-01T05:17:49.013Z,14.90
2018-03-01T05:18:48.819Z,15.80
2018-03-01T05:19:48.823Z,15.50
2018-03-01T05:20:48.624Z,15.50
2018-03-01T05:21:48.631Z,16.00
2018-03-01T05:22:48.463Z,15.90
2018-03-01T05:23:48.480Z,15.60
2018-03-01T05:24:48.280Z,15.60
2018-03-01T05:25:48.252Z,15.20
2018-03-01T05:26:48.100Z,15.70
2018-03-01T05:27:48.054Z,15.30
2018-03-01T05:28:47.923Z,14.90
2018-03-01T05:29:48.003Z,14.70
2018-03-01T05:30:47.759Z,16.00
2018-03-01T05:31:47.775Z,16.40
2018-03-01T05:32:48.479Z,48.50
2018-03-01T05:33:47.583Z,26.80
2018-03-01T05:34:47.431Z,17.20
2018-03-01T05:35:47.490Z,16.30
2018-03-01T05:36:47.235Z,15.20
2018-03-01T05:37:47.203Z,15.20
2018-03-01T05:38:47.061Z,15.30
2018-03-01T05:39:46.996Z,14.90
2018-03-01T05:40:46.900Z,16.10
2018-03-01T05:41:46.807Z,15.70
2018-03-01T05:42:46.709Z,15.50
2018-03-01T05:43:46.623Z,15.40
2018-03-01T05:44:46.534Z,15.30
2018-03-01T05:45:46.451Z,15.00
2018-03-01T05:46:46.377Z,14.90
2018-03-01T05:47:46.286Z,15.70
2018-03-01T05:48:46.185Z,14.60
2018-03-01T05:49:46.114Z,14.90
2018-03-01T05:50:46.008Z,14.80
2018-03-01T05:51:45.956Z,16.00
2018-03-01T05:52:45.832Z,14.90
2018-03-01T05:53:45.762Z,14.40
2018-03-01T05:54:45.679Z,14.00
2018-03-01T05:55:45.585Z,15.30
2018-03-01T05:56:45.541Z,14.40
2018-03-01T05:57:45.433Z,14.20
2018-03-01T05:58:45.312Z,14.60
2018-03-01T05:59:45.249Z,14.70
2018-03-01T06:00:45.140Z,14.30
2018-03-01T06:03:27.436Z,15.00
2018-03-01T06:04:27.333Z,15.00
2018-03-01T06:05:27.237Z,15.90
2018-03-01T06:06:27.165Z,15.50
2018-03-01T06:07:27.104Z,13.50
2018-03-01T06:08:26.985Z,15.40
2018-03-01T06:09:26.916Z,15.10
2018-03-01T06:10:26.813Z,13.60
2018-03-01T06:11:26.708Z,15.30
2018-03-01T06:12:26.652Z,14.50
2018-03-01T06:13:26.561Z,13.60
2018-03-01T06:31:48.905Z,14.50
2018-03-01T06:32:48.803Z,15.00
2018-03-01T06:33:48.719Z,14.50
2018-03-01T06:34:48.622Z,15.80
2018-03-01T06:35:48.544Z,15.40
2018-03-01T06:36:48.458Z,15.20
2018-03-01T06:37:48.375Z,15.10
2018-03-01T06:40:30.423Z,15.30
2018-03-01T06:41:30.344Z,15.30
2018-03-01T06:42:30.236Z,15.60
2018-03-01T06:43:30.180Z,15.40
2018-03-01T06:44:30.064Z,14.50
2018-03-01T06:45:29.981Z,15.30
2018-03-01T06:46:29.883Z,13.60
2018-03-01T06:47:29.867Z,14.60
2018-03-01T06:48:29.716Z,14.70
2018-03-01T06:49:29.637Z,15.10
2018-03-01T06:50:29.536Z,14.50
2018-03-01T06:51:29.479Z,14.60
2018-03-01T06:52:29.361Z,15.20
2018-03-01T06:53:29.310Z,12.90
2018-03-01T06:54:29.191Z,13.70
2018-03-01T06:55:29.134Z,15.00
2018-03-01T06:56:29.019Z,14.30
2018-03-01T06:57:28.943Z,14.70
2018-03-01T06:58:28.872Z,15.40
2018-03-01T06:59:28.791Z,15.20
2018-03-01T07:00:28.675Z,14.60
2018-03-01T07:01:28.608Z,15.80
2018-03-01T07:02:28.506Z,15.50
2018-03-01T07:03:28.442Z,15.30
2018-03-01T07:04:28.348Z,14.10
2018-03-01T07:05:28.304Z,13.80
2018-03-01T07:06:28.213Z,14.30
2018-03-01T07:07:28.089Z,15.00
2018-03-01T07:08:28.001Z,14.20
2018-03-01T07:09:27.918Z,14.30
2018-03-01T07:10:27.809Z,14.10
2018-03-01T07:11:27.732Z,14.60
2018-03-01T07:12:27.641Z,14.60
2018-03-01T07:13:27.572Z,14.80
2018-03-01T07:14:27.481Z,15.10
2018-03-01T07:15:27.382Z,14.30
2018-03-01T07:16:27.287Z,14.70
2018-03-01T07:17:27.218Z,12.30
2018-03-01T07:18:27.129Z,14.10
2018-03-01T07:19:27.071Z,14.60
2018-03-01T07:20:26.950Z,14.10
2018-03-01T07:21:26.876Z,14.10
2018-03-01T07:22:26.778Z,14.40
2018-03-01T07:23:26.688Z,14.30
2018-03-01T07:24:26.601Z,14.30
2018-03-01T07:25:26.583Z,13.80
2018-03-01T07:26:26.431Z,13.20
2018-03-01T07:27:26.346Z,14.10
2018-03-01T07:28:26.249Z,13.10
2018-03-01T07:29:26.175Z,14.90
2018-03-01T07:30:26.109Z,13.20
2018-03-01T07:31:26.000Z,13.90
2018-03-01T07:32:25.905Z,13.80
2018-03-01T07:33:25.835Z,14.10
2018-03-01T07:34:25.728Z,13.80
2018-03-01T07:35:25.748Z,14.20
2018-03-01T07:36:25.606Z,14.00
2018-03-01T07:37:25.476Z,14.30
2018-03-01T07:38:25.433Z,14.80
2018-03-01T07:39:25.324Z,13.60
2018-03-01T07:40:25.232Z,13.70
2018-03-01T07:41:25.133Z,14.30
2018-03-01T07:42:25.041Z,13.20
2018-03-01T07:43:24.976Z,14.30
2018-03-01T07:44:24.876Z,14.20
2018-03-01T07:45:24.823Z,13.70
2018-03-01T07:46:24.703Z,14.20
2018-03-01T07:47:24.611Z,15.00
2018-03-01T07:48:24.528Z,14.10
2018-03-01T07:49:24.537Z,14.00
2018-03-01T07:50:24.348Z,13.60
2018-03-01T07:51:24.296Z,14.10
2018-03-01T07:52:24.196Z,14.00
2018-03-01T07:53:24.093Z,13.20
2018-03-01T07:54:24.005Z,14.30
2018-03-01T07:55:23.970Z,14.70
2018-03-01T07:56:23.847Z,13.80
2018-03-01T07:57:23.778Z,13.80
2018-03-01T07:58:23.664Z,13.60
2018-03-01T07:59:23.586Z,14.00
2018-03-01T08:00:23.489Z,14.00
2018-03-01T08:01:23.421Z,13.50
2018-03-01T08:02:23.338Z,14.10
2018-03-01T08:03:23.250Z,14.40
2018-03-01T08:04:23.140Z,13.70
2018-03-01T08:05:23.132Z,13.50
2018-03-01T08:06:22.972Z,13.30
2018-03-01T08:07:22.921Z,13.30
2018-03-01T08:08:22.848Z,13.20
2018-03-01T08:09:22.730Z,13.80
2018-03-01T08:10:22.646Z,13.60
2018-03-01T08:11:22.557Z,14.00
2018-03-01T08:12:22.656Z,13.60
2018-03-01T08:13:22.397Z,14.20
2018-03-01T08:14:22.305Z,13.40
2018-03-01T08:15:22.226Z,14.10
2018-03-01T08:16:22.137Z,13.80
2018-03-01T08:17:22.144Z,13.50
2018-03-01T08:18:21.987Z,12.90
2018-03-01T08:19:21.873Z,13.70
2018-03-01T08:20:21.807Z,13.50
2018-03-01T08:21:21.705Z,11.90
2018-03-01T08:22:21.623Z,12.90
2018-03-01T08:23:21.571Z,13.30
2018-03-01T08:24:21.449Z,12.70
2018-03-01T08:25:21.366Z,13.80
2018-03-01T08:26:21.264Z,12.60
2018-03-01T08:27:21.197Z,13.00
2018-03-01T08:28:21.116Z,13.10
2018-03-01T08:29:21.016Z,13.10
2018-03-01T08:30:20.923Z,12.70
2018-03-01T08:31:20.898Z,13.10
2018-03-01T08:32:20.750Z,12.40
2018-03-01T08:33:20.714Z,12.90
2018-03-01T08:34:20.601Z,12.50
2018-03-01T08:35:20.520Z,12.50
2018-03-01T08:36:20.406Z,12.70
2018-03-01T08:37:20.333Z,12.70
2018-03-01T08:38:20.277Z,13.80
2018-03-01T08:39:20.209Z,12.20
2018-03-01T08:40:20.067Z,13.10
2018-03-01T08:41:20.003Z,13.40
2018-03-01T08:42:19.969Z,13.20
2018-03-01T08:43:19.840Z,12.60
2018-03-01T08:44:19.763Z,11.80
2018-03-01T08:45:19.668Z,11.30
2018-03-01T08:46:19.562Z,12.40
2018-03-01T08:47:19.484Z,12.80
2018-03-01T08:48:19.387Z,13.00
2018-03-01T08:49:19.345Z,12.60
2018-03-01T08:50:19.226Z,12.80
2018-03-01T08:51:19.166Z,12.50
2018-03-01T08:52:19.056Z,13.40
2018-03-01T08:53:18.999Z,12.00
2018-03-01T08:54:18.920Z,12.30
2018-03-01T08:55:18.826Z,12.60
2018-03-01T08:56:18.726Z,12.90
2018-03-01T08:57:18.660Z,12.30
2018-03-01T08:58:18.558Z,12.50
2018-03-01T08:59:18.515Z,12.90
2018-03-01T09:00:18.387Z,12.90
2018-03-01T09:01:18.365Z,13.10
2018-03-01T09:02:18.233Z,12.20
2018-03-01T09:03:18.174Z,12.70
2018-03-01T09:04:18.063Z,11.90
2018-03-01T09:05:18.018Z,12.80
2018-03-01T09:06:17.921Z,12.90
2018-03-01T09:07:17.837Z,12.30
2018-03-01T09:08:17.739Z,12.10
2018-03-01T09:09:17.673Z,12.40
2018-03-01T09:10:17.593Z,11.70
2018-03-01T09:11:17.506Z,12.40
2018-03-01T09:12:17.412Z,11.90
2018-03-01T09:13:17.339Z,11.70
2018-03-01T09:14:17.267Z,11.40
2018-03-01T09:15:17.281Z,11.80
2018-03-01T09:16:17.085Z,11.20
2018-03-01T09:17:17.056Z,11.40
2018-03-01T09:18:16.922Z,12.00
2018-03-01T09:19:16.859Z,11.90
2018-03-01T09:20:16.771Z,11.00
2018-03-01T09:21:16.676Z,11.80
2018-03-01T09:22:16.591Z,11.40
2018-03-01T09:23:16.516Z,11.90
2018-03-01T09:24:16.441Z,9.50
2018-03-01T09:25:16.387Z,11.00
2018-03-01T09:26:16.288Z,11.20
2018-03-01T09:27:16.198Z,11.10
2018-03-01T09:28:16.105Z,11.80
2018-03-01T09:29:16.051Z,11.00
2018-03-01T09:30:15.985Z,11.10
2018-03-01T09:31:15.895Z,11.20
2018-03-01T09:32:15.790Z,10.20
2018-03-01T09:33:15.719Z,11.10
2018-03-01T09:34:15.616Z,10.70
2018-03-01T09:35:15.569Z,10.80
2018-03-01T09:36:15.485Z,10.80
2018-03-01T09:37:15.382Z,11.90
2018-03-01T09:38:15.329Z,10.50
2018-03-01T09:39:15.217Z,10.50
2018-03-01T09:40:15.133Z,11.00
2018-03-01T09:41:15.076Z,11.30
2018-03-01T09:42:14.963Z,10.50
2018-03-01T09:43:14.972Z,10.20
2018-03-01T09:44:14.799Z,10.50
2018-03-01T09:45:14.741Z,10.80
2018-03-01T09:46:14.681Z,10.40
2018-03-01T09:47:14.570Z,10.20
2018-03-01T09:48:14.489Z,10.30
2018-03-01T09:49:14.396Z,9.90
2018-03-01T09:50:14.321Z,10.60
2018-03-01T09:51:14.244Z,10.70
2018-03-01T09:52:14.165Z,9.70
2018-03-01T09:53:14.077Z,10.20
2018-03-01T09:54:13.988Z,9.80
2018-03-01T09:55:13.912Z,10.00
2018-03-01T09:56:13.825Z,8.50
2018-03-01T09:57:13.761Z,9.40
2018-03-01T09:58:13.665Z,9.20
2018-03-01T09:59:13.583Z,9.80
2018-03-01T10:00:13.487Z,9.40
2018-03-01T10:01:14.043Z,9.80
2018-03-01T10:02:13.356Z,10.30
2018-03-01T10:03:13.256Z,9.90
2018-03-01T10:04:13.156Z,9.80
2018-03-01T10:05:13.101Z,10.70
2018-03-01T10:06:12.996Z,9.10
2018-03-01T10:07:12.946Z,10.10
2018-03-01T10:08:12.999Z,10.70
2018-03-01T10:09:12.815Z,9.20
2018-03-01T10:10:12.669Z,8.70
2018-03-01T10:11:12.616Z,7.40
2018-03-01T10:12:12.515Z,9.20
2018-03-01T10:13:12.469Z,9.00
2018-03-01T10:14:12.349Z,8.40
2018-03-01T10:15:12.301Z,7.80
2018-03-01T10:16:12.184Z,10.00
2018-03-01T10:17:12.120Z,9.70
2018-03-01T10:18:12.040Z,9.20
2018-03-01T10:19:11.950Z,8.90
2018-03-01T10:20:11.883Z,9.50
2018-03-01T10:21:11.791Z,8.20
2018-03-01T10:22:11.732Z,8.00
2018-03-01T10:23:11.667Z,9.20
2018-03-01T10:24:11.568Z,8.90
2018-03-01T10:25:11.474Z,10.10
2018-03-01T10:26:11.389Z,10.60
2018-03-01T10:27:11.322Z,9.20
2018-03-01T10:28:11.294Z,8.10
2018-03-01T10:29:11.153Z,7.70
2018-03-01T10:30:11.061Z,8.80
2018-03-01T10:31:10.999Z,7.60
2018-03-01T10:32:10.906Z,12.10
2018-03-01T10:33:10.835Z,11.20
2018-03-01T10:34:10.763Z,9.40
2018-03-01T10:35:10.685Z,9.30
2018-03-01T10:36:10.600Z,8.50
2018-03-01T10:38:52.456Z,9.40
2018-03-01T10:39:52.380Z,8.80
2018-03-01T10:40:52.279Z,9.30
2018-03-01T10:41:52.209Z,8.40
2018-03-01T10:42:52.114Z,8.60
2018-03-01T10:43:52.034Z,9.00
2018-03-01T10:44:52.020Z,9.10
2018-03-01T10:45:51.905Z,8.80
2018-03-01T10:46:51.790Z,8.70
2018-03-01T10:47:51.725Z,9.50
2018-03-01T10:48:51.635Z,9.80
2018-03-01T10:49:51.576Z,9.80
2018-03-01T10:50:51.491Z,9.00
2018-03-01T10:51:51.426Z,8.50
2018-03-01T10:52:51.327Z,9.40
2018-03-01T10:53:51.246Z,9.90
2018-03-01T10:54:51.156Z,10.30
2018-03-01T10:55:51.116Z,9.70
2018-03-01T10:56:51.008Z,9.30
2018-03-01T10:57:50.923Z,9.00
2018-03-01T10:58:50.839Z,9.50
2018-03-01T10:59:50.760Z,9.40
2018-03-01T11:00:50.721Z,9.00
2018-03-01T11:01:50.630Z,9.40
2018-03-01T11:02:50.519Z,9.50
2018-03-01T11:03:50.452Z,9.50
2018-03-01T11:04:50.389Z,9.70
2018-03-01T11:05:50.317Z,9.00
2018-03-01T11:06:50.198Z,9.50
2018-03-01T11:07:50.137Z,8.70
2018-03-01T11:08:50.044Z,9.80
2018-03-01T11:09:49.969Z,9.40
2018-03-01T11:10:49.895Z,9.30
2018-03-01T11:11:49.835Z,8.70
2018-03-01T11:12:49.718Z,9.50
2018-03-01T11:13:49.662Z,10.30
2018-03-01T11:14:49.567Z,9.70
2018-03-01T11:15:49.483Z,9.70
2018-03-01T11:16:49.406Z,9.20
2018-03-01T11:17:49.340Z,10.20
2018-03-01T11:18:49.251Z,9.20
2018-03-01T11:19:49.163Z,9.40
2018-03-01T11:20:49.107Z,9.40
2018-03-01T11:21:49.030Z,9.50
2018-03-01T11:22:48.898Z,9.30
2018-03-01T11:23:48.846Z,9.30
2018-03-01T11:24:48.833Z,7.90
2018-03-01T11:25:48.669Z,7.40
2018-03-01T11:26:48.604Z,9.10
2018-03-01T11:27:48.523Z,9.30
2018-03-01T11:28:48.427Z,10.00
2018-03-01T11:29:48.384Z,9.60
2018-03-01T11:30:48.260Z,9.90
2018-03-01T11:31:48.187Z,8.70
2018-03-01T11:32:48.105Z,9.40
2018-03-01T11:33:48.019Z,9.00
2018-03-01T11:34:47.971Z,10.00
2018-03-01T11:35:47.854Z,9.70
2018-03-01T11:36:47.773Z,9.00
2018-03-01T11:37:47.823Z,9.70
2018-03-01T11:38:47.601Z,9.80
2018-03-01T11:39:47.518Z,9.10
2018-03-01T11:40:47.428Z,8.50
2018-03-01T11:41:47.366Z,9.00
2018-03-01T11:42:47.587Z,9.20
2018-03-01T11:43:48.214Z,9.60
2018-03-01T11:44:47.102Z,9.50
2018-03-01T11:45:47.026Z,9.30
2018-03-01T11:46:46.939Z,9.20
2018-03-01T11:47:46.899Z,9.00
2018-03-01T11:48:46.797Z,9.20
2018-03-01T11:49:46.695Z,8.90
2018-03-01T11:50:46.621Z,9.00
2018-03-01T11:51:46.540Z,9.80
2018-03-01T11:52:46.451Z,10.00
2018-03-01T11:53:46.386Z,8.70
2018-03-01T11:54:46.394Z,8.70
2018-03-01T11:55:46.204Z,9.70
2018-03-01T11:56:46.126Z,8.90
2018-03-01T11:57:46.113Z,9.40
2018-03-01T11:58:45.968Z,9.10
2018-03-01T11:59:45.888Z,9.10
2018-03-01T12:00:45.791Z,8.60
2018-03-01T12:01:45.720Z,9.80
2018-03-01T12:02:45.631Z,9.70
2018-03-01T12:03:45.569Z,9.40
2018-03-01T12:04:45.455Z,9.20
2018-03-01T12:05:45.379Z,9.60
2018-03-01T12:06:45.294Z,9.30
2018-03-01T12:07:45.223Z,8.70
2018-03-01T12:08:45.143Z,9.90
2018-03-01T12:09:45.056Z,9.60
2018-03-01T12:10:44.966Z,9.10
2018-03-01T12:11:45.478Z,9.60
2018-03-01T12:12:44.805Z,9.40
2018-03-01T12:13:44.757Z,9.40
2018-03-01T12:14:44.639Z,9.30
2018-03-01T12:15:44.566Z,9.30
2018-03-01T12:16:44.474Z,9.30
2018-03-01T12:17:44.405Z,9.20
2018-03-01T12:18:44.320Z,9.30
2018-03-01T12:19:44.262Z,9.00
2018-03-01T12:20:44.142Z,9.40
2018-03-01T12:21:44.084Z,9.30
2018-03-01T12:22:43.990Z,8.90
2018-03-01T12:23:43.917Z,8.90
2018-03-01T12:24:43.867Z,9.20
2018-03-01T12:25:43.760Z,8.80
2018-03-01T12:26:43.658Z,10.10
2018-03-01T12:27:43.612Z,9.00
2018-03-01T12:28:43.516Z,9.00
2018-03-01T12:29:43.456Z,8.70
2018-03-01T12:30:43.445Z,9.00
2018-03-01T12:31:43.283Z,9.30
2018-03-01T12:32:43.167Z,8.90
2018-03-01T12:33:43.109Z,9.20
2018-03-01T12:34:43.048Z,8.50
2018-03-01T12:35:42.969Z,9.30
2018-03-01T12:36:42.861Z,8.70
2018-03-01T12:37:42.785Z,8.00
2018-03-01T12:38:42.692Z,9.10
2018-03-01T12:39:42.613Z,9.20
2018-03-01T12:40:42.538Z,9.50
2018-03-01T12:41:42.448Z,9.50
2018-03-01T12:42:42.363Z,7.90
2018-03-01T12:43:42.303Z,7.60
2018-03-01T12:44:42.232Z,9.00
2018-03-01T12:45:42.130Z,9.60
2018-03-01T12:46:42.031Z,9.10
2018-03-01T12:47:41.965Z,8.60
2018-03-01T12:48:41.862Z,8.80
2018-03-01T12:49:41.789Z,9.00
2018-03-01T12:50:42.239Z,9.00
2018-03-01T12:51:41.636Z,9.10
2018-03-01T12:52:41.542Z,8.80
2018-03-01T12:53:41.512Z,8.60
2018-03-01T12:54:41.371Z,9.00
2018-03-01T12:55:41.336Z,8.10
2018-03-01T12:56:41.218Z,7.80
2018-03-01T12:57:41.132Z,8.90
2018-03-01T12:58:41.044Z,9.50
2018-03-01T12:59:40.979Z,8.60
2018-03-01T13:00:40.906Z,9.00
2018-03-01T13:01:40.845Z,8.60
2018-03-01T13:02:40.745Z,9.10
2018-03-01T13:03:40.753Z,9.20
2018-03-01T13:04:40.565Z,7.10
2018-03-01T13:05:40.481Z,8.90
2018-03-01T13:06:40.451Z,7.20
2018-03-01T13:07:40.313Z,8.70
2018-03-01T13:08:40.228Z,6.90
2018-03-01T13:09:40.147Z,7.80
2018-03-01T13:10:40.062Z,8.40
2018-03-01T13:11:39.995Z,6.20
2018-03-01T13:12:39.909Z,8.40
2018-03-01T13:13:39.819Z,8.70
2018-03-01T13:14:39.736Z,8.60
2018-03-01T13:15:39.661Z,8.80
2018-03-01T13:16:39.582Z,6.20
2018-03-01T13:17:39.527Z,6.70
2018-03-01T13:18:39.394Z,7.80
2018-03-01T13:19:39.345Z,9.40